Latest Weather Observations for Spitfire Channel

IDQ60901

Issued at 11:11 am EST Wednesday 13 December 2017 (issued every 10 minutes, with the page automatically refreshed every 10 minutes)

About weather observations | Map of Brisbane area stations | Latest observations for Brisbane area | Other Formats
Station Details ID: 040927 Name: SPITFIRE CHANNEL BEACON Lat: -27.05 Lon: 153.27 Height: 7.0 m
Data from the previous 72 hours. | See also: Recent months for locations in Queensland
Date/Time
EST
Temp
°C
App
Temp
°C
Dew
Point
°C
Rel
Hum
%
Delta-T
°C
Wind Press
QNH
hPa
Press
MSL
hPa
Rain since
9am
mm
Dir  Spd
km/h
Gust
km/h
Spd
kts
Gust
kts
13/11:00am - - - - - E 15 19 8 10 - - -
13/10:30am - - - - - ESE 13 19 7 10 - - -
13/10:00am - - - - - ESE 15 19 8 10 - - -
13/09:30am - - - - - E 15 20 8 11 - - -
13/09:00am - - - - - ESE 15 20 8 11 - - -
13/08:30am - - - - - ESE 13 20 7 11 - - -
13/08:00am - - - - - ESE 17 20 9 11 - - -
13/07:30am - - - - - E 17 20 9 11 - - -
13/07:00am - - - - - ESE 19 20 10 11 - - -
13/06:30am - - - - - ESE 19 20 10 11 - - -
13/06:00am - - - - - ESE 17 20 9 11 - - -
13/05:30am - - - - - ESE 17 20 9 11 - - -
13/05:00am - - - - - ESE 17 20 9 11 - - -
13/04:30am - - - - - ESE 17 20 9 11 - - -
13/04:00am - - - - - ESE 17 20 9 11 - - -
13/03:30am - - - - - ESE 20 26 11 14 - - -
13/03:00am - - - - - ESE 19 24 10 13 - - -
13/02:30am - - - - - SE 20 26 11 14 - - -
13/02:00am - - - - - SE 20 26 11 14 - - -
13/01:30am - - - - - SE 22 28 12 15 - - -
13/01:00am - - - - - SE 24 28 13 15 - - -
13/12:30am - - - - - SE 24 28 13 15 - - -
13/12:00am - - - - - SE 22 26 12 14 - - -
 
Date/Time
EST
Temp
°C
App
Temp
°C
Dew
Point
°C
Rel
Hum
%
Delta-T
°C
Wind Press
QNH
hPa
Press
MSL
hPa
Rain since
9am
mm
Dir  Spd
km/h
Gust
km/h
Spd
kts
Gust
kts
12/11:30pm - - - - - SE 24 28 13 15 - - -
12/11:00pm - - - - - SE 20 26 11 14 - - -
12/10:30pm - - - - - ESE 24 28 13 15 - - -
12/10:00pm - - - - - SE 26 30 14 16 - - -
12/09:30pm - - - - - ESE 26 30 14 16 - - -
12/09:00pm - - - - - ESE 28 35 15 19 - - -
12/08:30pm - - - - - ESE 30 33 16 18 - - -
12/08:00pm - - - - - ESE 26 32 14 17 - - -
12/07:30pm - - - - - SE 28 33 15 18 - - -
12/07:00pm - - - - - ESE 30 35 16 19 - - -
12/06:30pm - - - - - SE 33 39 18 21 - - -
12/06:00pm - - - - - SE 33 43 18 23 - - -
12/05:30pm - - - - - SE 37 43 20 23 - - -
12/05:00pm - - - - - SE 35 41 19 22 - - -
12/04:30pm - - - - - SE 35 43 19 23 - - -
12/04:00pm - - - - - SE 35 41 19 22 - - -
12/03:30pm - - - - - SE 33 39 18 21 - - -
12/03:00pm - - - - - SE 33 43 18 23 - - -
12/02:30pm - - - - - SE 33 41 18 22 - - -
12/02:00pm - - - - - SSE 32 39 17 21 - - -
12/01:30pm - - - - - SSE 32 41 17 22 - - -
12/01:00pm - - - - - SE 30 37 16 20 - - -
12/12:30pm - - - - - SE 28 35 15 19 - - -
12/12:00pm - - - - - SSE 26 37 14 20 - - -
12/11:30am - - - - - SSE 32 39 17 21 - - -
12/11:00am - - - - - SSE 30 35 16 19 - - -
12/10:30am - - - - - SE 35 43 19 23 - - -
12/10:00am - - - - - SSE 32 39 17 21 - - -
12/09:30am - - - - - SSE 32 41 17 22 - - -
12/09:00am - - - - - SSE 30 33 16 18 - - -
12/08:30am - - - - - SSE 32 39 17 21 - - -
12/08:00am - - - - - S 30 35 16 19 - - -
12/07:30am - - - - - SSE 30 35 16 19 - - -
12/07:00am - - - - - S 32 35 17 19 - - -
12/06:30am - - - - - S 32 37 17 20 - - -
12/06:00am - - - - - S 30 35 16 19 - - -
12/05:30am - - - - - S 28 32 15 17 - - -
12/05:00am - - - - - S 26 32 14 17 - - -
12/04:30am - - - - - SSE 26 30 14 16 - - -
12/04:00am - - - - - SSE 26 30 14 16 - - -
12/03:30am - - - - - SSE 26 32 14 17 - - -
12/03:00am - - - - - SSE 26 32 14 17 - - -
12/02:30am - - - - - SSE 28 33 15 18 - - -
12/02:00am - - - - - SSE 28 32 15 17 - - -
12/01:30am - - - - - SSE 28 33 15 18 - - -
12/01:00am - - - - - SSE 28 35 15 19 - - -
12/12:30am - - - - - SSE 30 35 16 19 - - -
12/12:00am - - - - - SSE 30 35 16 19 - - -
 
Date/Time
EST
Temp
°C
App
Temp
°C
Dew
Point
°C
Rel
Hum
%
Delta-T
°C
Wind Press
QNH
hPa
Press
MSL
hPa
Rain since
9am
mm
Dir  Spd
km/h
Gust
km/h
Spd
kts
Gust
kts
11/11:30pm - - - - - SSE 30 35 16 19 - - -
11/11:00pm - - - - - SE 30 35 16 19 - - -
11/10:30pm - - - - - SE 26 30 14 16 - - -
11/10:00pm - - - - - SE 28 33 15 18 - - -
11/09:30pm - - - - - SE 28 33 15 18 - - -
11/09:00pm - - - - - ESE 26 32 14 17 - - -
11/08:30pm - - - - - ESE 28 33 15 18 - - -
11/08:00pm - - - - - ESE 26 32 14 17 - - -
11/07:30pm - - - - - ESE 28 32 15 17 - - -
11/07:00pm - - - - - ESE 30 33 16 18 - - -
11/06:30pm - - - - - ESE 30 35 16 19 - - -
11/06:00pm - - - - - ESE 30 35 16 19 - - -
11/05:30pm - - - - - ESE 30 37 16 20 - - -
11/05:00pm - - - - - SE 33 39 18 21 - - -
11/04:30pm - - - - - SE 26 32 14 17 - - -
11/04:00pm - - - - - ESE 24 30 13 16 - - -
11/03:30pm - - - - - ESE 30 37 16 20 - - -
11/03:00pm - - - - - E 24 30 13 16 - - -
11/02:30pm - - - - - ESE 28 35 15 19 - - -
11/02:00pm - - - - - SE 35 41 19 22 - - -
11/01:30pm - - - - - SE 30 35 16 19 - - -
11/01:00pm - - - - - SE 35 43 19 23 - - -
11/12:30pm - - - - - SE 32 35 17 19 - - -
11/12:00pm - - - - - E 15 30 8 16 - - -
11/11:49am - - - - - ESE 26 35 14 19 - - -
11/11:30am - - - - - SE 13 19 7 10 - - -
11/11:00am - - - - - SE 32 39 17 21 - - -
11/10:30am - - - - - SE 35 44 19 24 - - -
11/10:00am - - - - - SSE 30 35 16 19 - - -
11/09:30am - - - - - SSE 32 37 17 20 - - -
11/09:00am - - - - - SSE 32 37 17 20 - - -
11/08:30am - - - - - SSE 28 32 15 17 - - -
11/08:00am - - - - - SE 30 35 16 19 - - -
11/07:30am - - - - - SSE 28 33 15 18 - - -
11/07:00am - - - - - SSE 33 39 18 21 - - -
11/06:30am - - - - - SSE 32 39 17 21 - - -
11/06:00am - - - - - SSE 28 35 15 19 - - -
11/05:30am - - - - - SSE 32 39 17 21 - - -
11/05:00am - - - - - SE 30 37 16 20 - - -
11/04:30am - - - - - SSE 32 37 17 20 - - -
11/04:00am - - - - - SE 33 41 18 22 - - -
11/03:30am - - - - - SE 33 39 18 21 - - -
11/03:00am - - - - - SSE 30 35 16 19 - - -
11/02:30am - - - - - SSE 32 35 17 19 - - -
11/02:00am - - - - - SE 35 41 19 22 - - -
11/01:30am - - - - - SSE 32 35 17 19 - - -
11/01:00am - - - - - SE 30 35 16 19 - - -
11/12:30am - - - - - SE 32 39 17 21 - - -
11/12:00am - - - - - ESE 24 39 13 21 - - -
 
Date/Time
EST
Temp
°C
App
Temp
°C
Dew
Point
°C
Rel
Hum
%
Delta-T
°C
Wind Press
QNH
hPa
Press
MSL
hPa
Rain since
9am
mm
Dir  Spd
km/h
Gust
km/h
Spd
kts
Gust
kts
10/11:30pm - - - - - SSE 30 37 16 20 - - -
10/11:00pm - - - - - SSE 33 39 18 21 - - -
10/10:30pm - - - - - SE 32 37 17 20 - - -
10/10:00pm - - - - - SE 32 37 17 20 - - -
10/09:30pm - - - - - SE 32 37 17 20 - - -
10/09:00pm - - - - - SE 32 39 17 21 - - -
10/08:30pm - - - - - SE 30 37 16 20 - - -
10/08:00pm - - - - - SE 32 39 17 21 - - -
10/07:30pm - - - - - SE 30 39 16 21 - - -
10/07:00pm - - - - - SE 32 41 17 22 - - -
10/06:30pm - - - - - SE 30 37 16 20 - - -
10/06:00pm - - - - - SE 32 37 17 20 - - -
10/05:30pm - - - - - SE 35 43 19 23 - - -
10/05:00pm - - - - - ESE 33 39 18 21 - - -
10/04:30pm - - - - - SE 32 37 17 20 - - -
10/04:00pm - - - - - SE 32 39 17 21 - - -
10/03:30pm - - - - - SE 30 35 16 19 - - -
10/03:00pm - - - - - ESE 30 35 16 19 - - -
10/02:30pm - - - - - ESE 30 35 16 19 - - -
10/02:00pm - - - - - ESE 30 37 16 20 - - -
10/01:30pm - - - - - ESE 30 33 16 18 - - -
10/01:00pm - - - - - SE 26 32 14 17 - - -
10/12:30pm - - - - - SE 30 33 16 18 - - -
10/12:00pm - - - - - SE 32 37 17 20 - - -
10/11:30am - - - - - SE 30 35 16 19 - - -

Latest Capital City Observations: Canberra | Sydney | Melbourne | Brisbane | Adelaide | Perth | Hobart | Darwin

Other Formats:

Comma delimited format used in spreadsheet applications
http://www.bom.gov.au/fwo/IDQ60901/IDQ60901.94581.axf

JavaScript Object Notation format (JSON) in row-major order
http://www.bom.gov.au/fwo/IDQ60901/IDQ60901.94581.json